sensor_id;sensor_type;location;lat;lon;timestamp;P1;durP1;ratioP1;P2;durP2;ratioP2
36441;SDS011;64346;50.820;16.274;2022-11-15T00:01:08;25.88;;;15.38;;
36441;SDS011;64346;50.820;16.274;2022-11-15T00:03:37;25.88;;;15.15;;
36441;SDS011;64346;50.820;16.274;2022-11-15T00:06:08;27.25;;;15.95;;
36441;SDS011;64346;50.820;16.274;2022-11-15T00:08:35;24.63;;;15.32;;
36441;SDS011;64346;50.820;16.274;2022-11-15T00:11:03;28.45;;;16.73;;
36441;SDS011;64346;50.820;16.274;2022-11-15T00:13:30;24.13;;;14.57;;
36441;SDS011;64346;50.820;16.274;2022-11-15T00:15:58;27.67;;;16.02;;
36441;SDS011;64346;50.820;16.274;2022-11-15T00:18:29;28.73;;;15.00;;
36441;SDS011;64346;50.820;16.274;2022-11-15T00:21:07;28.10;;;16.17;;
36441;SDS011;64346;50.820;16.274;2022-11-15T00:23:37;26.40;;;15.07;;
36441;SDS011;64346;50.820;16.274;2022-11-15T00:26:04;29.20;;;15.45;;
36441;SDS011;64346;50.820;16.274;2022-11-15T00:28:34;25.67;;;16.08;;
36441;SDS011;64346;50.820;16.274;2022-11-15T00:31:02;28.73;;;15.60;;
36441;SDS011;64346;50.820;16.274;2022-11-15T00:33:31;27.17;;;15.18;;
36441;SDS011;64346;50.820;16.274;2022-11-15T00:36:04;26.00;;;16.08;;
36441;SDS011;64346;50.820;16.274;2022-11-15T00:38:33;27.13;;;17.00;;
36441;SDS011;64346;50.820;16.274;2022-11-15T00:41:02;26.92;;;15.43;;
36441;SDS011;64346;50.820;16.274;2022-11-15T00:43:37;26.23;;;15.65;;
36441;SDS011;64346;50.820;16.274;2022-11-15T00:46:04;27.40;;;16.45;;
36441;SDS011;64346;50.820;16.274;2022-11-15T00:48:32;27.63;;;15.20;;
36441;SDS011;64346;50.820;16.274;2022-11-15T00:50:59;25.73;;;15.05;;
36441;SDS011;64346;50.820;16.274;2022-11-15T00:53:26;25.05;;;14.95;;
36441;SDS011;64346;50.820;16.274;2022-11-15T00:55:56;27.20;;;14.13;;
36441;SDS011;64346;50.820;16.274;2022-11-15T00:58:24;24.90;;;14.48;;
36441;SDS011;64346;50.820;16.274;2022-11-15T01:00:53;24.33;;;14.77;;
36441;SDS011;64346;50.820;16.274;2022-11-15T01:03:20;26.23;;;14.48;;
36441;SDS011;64346;50.820;16.274;2022-11-15T01:05:48;25.90;;;14.30;;
36441;SDS011;64346;50.820;16.274;2022-11-15T01:08:15;27.20;;;15.70;;
36441;SDS011;64346;50.820;16.274;2022-11-15T01:10:43;26.33;;;15.40;;
36441;SDS011;64346;50.820;16.274;2022-11-15T01:13:10;26.42;;;15.60;;
36441;SDS011;64346;50.820;16.274;2022-11-15T01:15:40;26.75;;;16.00;;
36441;SDS011;64346;50.820;16.274;2022-11-15T01:18:10;26.20;;;15.77;;
36441;SDS011;64346;50.820;16.274;2022-11-15T01:20:41;27.27;;;16.20;;
36441;SDS011;64346;50.820;16.274;2022-11-15T01:23:08;31.40;;;17.35;;
36441;SDS011;64346;50.820;16.274;2022-11-15T01:25:37;31.80;;;18.45;;
36441;SDS011;64346;50.820;16.274;2022-11-15T01:28:07;32.72;;;19.58;;
36441;SDS011;64346;50.820;16.274;2022-11-15T01:30:35;32.50;;;18.42;;
36441;SDS011;64346;50.820;16.274;2022-11-15T01:33:02;28.15;;;16.38;;
36441;SDS011;64346;50.820;16.274;2022-11-15T01:35:30;28.70;;;16.48;;
36441;SDS011;64346;50.820;16.274;2022-11-15T01:37:57;28.80;;;16.17;;
36441;SDS011;64346;50.820;16.274;2022-11-15T01:40:27;23.85;;;14.75;;
36441;SDS011;64346;50.820;16.274;2022-11-15T01:42:54;27.65;;;15.63;;
36441;SDS011;64346;50.820;16.274;2022-11-15T01:45:21;28.40;;;16.40;;
36441;SDS011;64346;50.820;16.274;2022-11-15T01:47:49;30.23;;;16.17;;
36441;SDS011;64346;50.820;16.274;2022-11-15T01:50:23;26.17;;;15.50;;
36441;SDS011;64346;50.820;16.274;2022-11-15T01:52:54;27.33;;;16.48;;
36441;SDS011;64346;50.820;16.274;2022-11-15T01:55:23;30.92;;;16.20;;
36441;SDS011;64346;50.820;16.274;2022-11-15T01:57:54;23.58;;;14.65;;
36441;SDS011;64346;50.820;16.274;2022-11-15T02:00:26;23.37;;;14.83;;
36441;SDS011;64346;50.820;16.274;2022-11-15T02:02:54;26.95;;;14.05;;
36441;SDS011;64346;50.820;16.274;2022-11-15T02:05:24;24.23;;;14.13;;
36441;SDS011;64346;50.820;16.274;2022-11-15T02:07:55;27.13;;;15.60;;
36441;SDS011;64346;50.820;16.274;2022-11-15T02:10:23;28.60;;;16.23;;
36441;SDS011;64346;50.820;16.274;2022-11-15T02:12:51;29.60;;;16.30;;
36441;SDS011;64346;50.820;16.274;2022-11-15T02:15:23;26.98;;;14.85;;
36441;SDS011;64346;50.820;16.274;2022-11-15T02:25:40;24.70;;;14.57;;
36441;SDS011;64346;50.820;16.274;2022-11-15T02:31:28;24.60;;;14.60;;
36441;SDS011;64346;50.820;16.274;2022-11-15T02:34:25;28.13;;;15.33;;
36441;SDS011;64346;50.820;16.274;2022-11-15T02:37:21;27.38;;;14.90;;
36441;SDS011;64346;50.820;16.274;2022-11-15T02:42:47;28.05;;;15.57;;
36441;SDS011;64346;50.820;16.274;2022-11-15T02:45:24;24.48;;;14.55;;
36441;SDS011;64346;50.820;16.274;2022-11-15T02:48:01;24.63;;;14.65;;
36441;SDS011;64346;50.820;16.274;2022-11-15T02:50:30;29.63;;;16.40;;
36441;SDS011;64346;50.820;16.274;2022-11-15T02:52:59;25.13;;;15.05;;
36441;SDS011;64346;50.820;16.274;2022-11-15T03:07:02;27.92;;;17.35;;
36441;SDS011;64346;50.820;16.274;2022-11-15T03:12:41;27.50;;;15.00;;
36441;SDS011;64346;50.820;16.274;2022-11-15T03:15:29;27.23;;;16.05;;
36441;SDS011;64346;50.820;16.274;2022-11-15T03:18:15;28.10;;;15.75;;
36441;SDS011;64346;50.820;16.274;2022-11-15T03:21:08;26.65;;;14.73;;
36441;SDS011;64346;50.820;16.274;2022-11-15T03:23:38;27.70;;;15.55;;
36441;SDS011;64346;50.820;16.274;2022-11-15T03:26:07;21.92;;;14.05;;
36441;SDS011;64346;50.820;16.274;2022-11-15T03:28:38;25.40;;;15.20;;
36441;SDS011;64346;50.820;16.274;2022-11-15T03:31:15;23.65;;;14.43;;
36441;SDS011;64346;50.820;16.274;2022-11-15T03:33:46;25.67;;;14.98;;
36441;SDS011;64346;50.820;16.274;2022-11-15T03:36:16;26.20;;;14.52;;
36441;SDS011;64346;50.820;16.274;2022-11-15T03:38:46;24.77;;;13.27;;
36441;SDS011;64346;50.820;16.274;2022-11-15T03:41:18;26.60;;;14.57;;
36441;SDS011;64346;50.820;16.274;2022-11-15T03:43:57;23.92;;;13.60;;
36441;SDS011;64346;50.820;16.274;2022-11-15T03:46:43;25.77;;;14.27;;
36441;SDS011;64346;50.820;16.274;2022-11-15T03:49:20;25.08;;;14.90;;
36441;SDS011;64346;50.820;16.274;2022-11-15T03:51:53;25.52;;;15.00;;
36441;SDS011;64346;50.820;16.274;2022-11-15T03:54:24;25.85;;;15.73;;
36441;SDS011;64346;50.820;16.274;2022-11-15T03:56:51;24.02;;;14.23;;
36441;SDS011;64346;50.820;16.274;2022-11-15T03:59:18;24.35;;;14.65;;
36441;SDS011;64346;50.820;16.274;2022-11-15T04:01:45;27.27;;;15.85;;
36441;SDS011;64346;50.820;16.274;2022-11-15T04:04:15;25.50;;;14.95;;
36441;SDS011;64346;50.820;16.274;2022-11-15T04:06:43;24.25;;;14.27;;
36441;SDS011;64346;50.820;16.274;2022-11-15T04:09:10;26.80;;;15.07;;
36441;SDS011;64346;50.820;16.274;2022-11-15T04:11:37;25.17;;;15.30;;
36441;SDS011;64346;50.820;16.274;2022-11-15T04:14:10;24.55;;;14.18;;
36441;SDS011;64346;50.820;16.274;2022-11-15T04:16:37;25.25;;;15.93;;
36441;SDS011;64346;50.820;16.274;2022-11-15T04:19:09;26.05;;;15.52;;
36441;SDS011;64346;50.820;16.274;2022-11-15T04:21:37;24.90;;;15.10;;
36441;SDS011;64346;50.820;16.274;2022-11-15T04:24:04;24.63;;;14.13;;
36441;SDS011;64346;50.820;16.274;2022-11-15T04:26:34;24.80;;;15.52;;
36441;SDS011;64346;50.820;16.274;2022-11-15T04:29:03;24.98;;;13.43;;
36441;SDS011;64346;50.820;16.274;2022-11-15T04:31:33;26.27;;;14.63;;
36441;SDS011;64346;50.820;16.274;2022-11-15T04:34:00;25.67;;;14.95;;
36441;SDS011;64346;50.820;16.274;2022-11-15T04:36:28;23.50;;;13.85;;
36441;SDS011;64346;50.820;16.274;2022-11-15T04:38:55;29.00;;;15.32;;
36441;SDS011;64346;50.820;16.274;2022-11-15T04:41:22;24.98;;;14.32;;
36441;SDS011;64346;50.820;16.274;2022-11-15T04:43:50;25.77;;;15.20;;
36441;SDS011;64346;50.820;16.274;2022-11-15T04:46:17;23.92;;;14.93;;
36441;SDS011;64346;50.820;16.274;2022-11-15T04:48:45;25.52;;;15.45;;
36441;SDS011;64346;50.820;16.274;2022-11-15T04:51:12;23.55;;;13.82;;
36441;SDS011;64346;50.820;16.274;2022-11-15T04:53:39;24.42;;;14.65;;
36441;SDS011;64346;50.820;16.274;2022-11-15T04:56:06;27.17;;;15.63;;
36441;SDS011;64346;50.820;16.274;2022-11-15T04:58:34;25.30;;;15.43;;
36441;SDS011;64346;50.820;16.274;2022-11-15T05:01:13;25.48;;;14.70;;
36441;SDS011;64346;50.820;16.274;2022-11-15T05:03:41;24.05;;;15.35;;
36441;SDS011;64346;50.820;16.274;2022-11-15T05:06:09;26.77;;;15.20;;
36441;SDS011;64346;50.820;16.274;2022-11-15T05:08:36;28.02;;;15.73;;
36441;SDS011;64346;50.820;16.274;2022-11-15T05:11:04;27.45;;;16.33;;
36441;SDS011;64346;50.820;16.274;2022-11-15T05:13:31;27.00;;;15.68;;
36441;SDS011;64346;50.820;16.274;2022-11-15T05:15:59;27.40;;;16.08;;
36441;SDS011;64346;50.820;16.274;2022-11-15T05:18:26;27.27;;;15.15;;
36441;SDS011;64346;50.820;16.274;2022-11-15T05:20:56;25.20;;;14.40;;
36441;SDS011;64346;50.820;16.274;2022-11-15T05:23:40;26.45;;;14.95;;
36441;SDS011;64346;50.820;16.274;2022-11-15T05:26:08;28.90;;;16.00;;
36441;SDS011;64346;50.820;16.274;2022-11-15T05:28:38;27.95;;;16.60;;
36441;SDS011;64346;50.820;16.274;2022-11-15T05:31:09;26.27;;;15.68;;
36441;SDS011;64346;50.820;16.274;2022-11-15T05:33:38;25.88;;;15.85;;
36441;SDS011;64346;50.820;16.274;2022-11-15T05:39:00;25.02;;;14.95;;
36441;SDS011;64346;50.820;16.274;2022-11-15T05:41:32;26.70;;;16.30;;
36441;SDS011;64346;50.820;16.274;2022-11-15T05:44:05;26.23;;;15.82;;
36441;SDS011;64346;50.820;16.274;2022-11-15T05:46:35;28.58;;;16.45;;
36441;SDS011;64346;50.820;16.274;2022-11-15T05:49:06;25.15;;;15.82;;
36441;SDS011;64346;50.820;16.274;2022-11-15T05:51:38;28.70;;;16.55;;
36441;SDS011;64346;50.820;16.274;2022-11-15T05:54:07;30.40;;;16.63;;
36441;SDS011;64346;50.820;16.274;2022-11-15T05:56:34;29.00;;;16.73;;
36441;SDS011;64346;50.820;16.274;2022-11-15T05:59:02;30.17;;;17.48;;
36441;SDS011;64346;50.820;16.274;2022-11-15T06:01:30;30.42;;;18.10;;
36441;SDS011;64346;50.820;16.274;2022-11-15T06:03:57;29.80;;;17.13;;
36441;SDS011;64346;50.820;16.274;2022-11-15T06:06:24;33.00;;;18.33;;
36441;SDS011;64346;50.820;16.274;2022-11-15T06:08:56;30.20;;;16.88;;
36441;SDS011;64346;50.820;16.274;2022-11-15T06:11:26;28.27;;;16.50;;
36441;SDS011;64346;50.820;16.274;2022-11-15T06:13:53;32.05;;;17.10;;
36441;SDS011;64346;50.820;16.274;2022-11-15T06:16:20;31.15;;;18.13;;
36441;SDS011;64346;50.820;16.274;2022-11-15T06:18:48;28.63;;;17.05;;
36441;SDS011;64346;50.820;16.274;2022-11-15T06:21:17;28.88;;;16.20;;
36441;SDS011;64346;50.820;16.274;2022-11-15T06:23:44;28.27;;;17.23;;
36441;SDS011;64346;50.820;16.274;2022-11-15T06:26:11;27.05;;;16.02;;
36441;SDS011;64346;50.820;16.274;2022-11-15T06:28:41;43.25;;;24.67;;
36441;SDS011;64346;50.820;16.274;2022-11-15T06:31:09;27.92;;;17.27;;
36441;SDS011;64346;50.820;16.274;2022-11-15T06:33:40;25.65;;;15.27;;
36441;SDS011;64346;50.820;16.274;2022-11-15T06:36:09;25.42;;;15.65;;
36441;SDS011;64346;50.820;16.274;2022-11-15T06:38:44;25.45;;;13.88;;
36441;SDS011;64346;50.820;16.274;2022-11-15T06:41:13;24.70;;;13.15;;
36441;SDS011;64346;50.820;16.274;2022-11-15T06:43:41;23.15;;;13.65;;
36441;SDS011;64346;50.820;16.274;2022-11-15T06:46:08;21.55;;;13.02;;
36441;SDS011;64346;50.820;16.274;2022-11-15T06:48:39;23.40;;;12.90;;
36441;SDS011;64346;50.820;16.274;2022-11-15T06:51:06;20.55;;;12.45;;
36441;SDS011;64346;50.820;16.274;2022-11-15T06:53:33;28.45;;;13.05;;
36441;SDS011;64346;50.820;16.274;2022-11-15T06:56:02;25.17;;;13.18;;
36441;SDS011;64346;50.820;16.274;2022-11-15T06:58:31;27.15;;;14.02;;
36441;SDS011;64346;50.820;16.274;2022-11-15T07:01:01;24.17;;;13.10;;
36441;SDS011;64346;50.820;16.274;2022-11-15T07:03:40;24.70;;;14.00;;
36441;SDS011;64346;50.820;16.274;2022-11-15T07:06:09;20.77;;;14.02;;
36441;SDS011;64346;50.820;16.274;2022-11-15T07:08:39;20.15;;;14.90;;
36441;SDS011;64346;50.820;16.274;2022-11-15T07:11:08;19.67;;;13.05;;
36441;SDS011;64346;50.820;16.274;2022-11-15T07:13:38;24.40;;;13.50;;
36441;SDS011;64346;50.820;16.274;2022-11-15T07:16:06;20.63;;;12.63;;
36441;SDS011;64346;50.820;16.274;2022-11-15T07:18:38;21.25;;;13.35;;
36441;SDS011;64346;50.820;16.274;2022-11-15T07:21:07;47.53;;;35.95;;
36441;SDS011;64346;50.820;16.274;2022-11-15T07:23:36;22.38;;;14.30;;
36441;SDS011;64346;50.820;16.274;2022-11-15T07:26:04;21.92;;;14.32;;
36441;SDS011;64346;50.820;16.274;2022-11-15T07:28:35;21.80;;;12.82;;
36441;SDS011;64346;50.820;16.274;2022-11-15T07:31:03;19.00;;;12.93;;
36441;SDS011;64346;50.820;16.274;2022-11-15T07:33:32;16.80;;;12.15;;
36441;SDS011;64346;50.820;16.274;2022-11-15T07:36:02;20.20;;;13.18;;
36441;SDS011;64346;50.820;16.274;2022-11-15T07:38:32;18.77;;;13.20;;
36441;SDS011;64346;50.820;16.274;2022-11-15T07:41:08;19.13;;;12.80;;
36441;SDS011;64346;50.820;16.274;2022-11-15T07:43:36;16.42;;;12.70;;
36441;SDS011;64346;50.820;16.274;2022-11-15T07:46:08;19.58;;;14.75;;
36441;SDS011;64346;50.820;16.274;2022-11-15T07:48:37;18.45;;;13.68;;
36441;SDS011;64346;50.820;16.274;2022-11-15T07:51:11;18.08;;;12.95;;
36441;SDS011;64346;50.820;16.274;2022-11-15T07:53:43;19.13;;;12.90;;
36441;SDS011;64346;50.820;16.274;2022-11-15T07:56:10;17.48;;;12.38;;
36441;SDS011;64346;50.820;16.274;2022-11-15T07:58:42;18.30;;;12.20;;
36441;SDS011;64346;50.820;16.274;2022-11-15T08:01:12;14.77;;;11.23;;
36441;SDS011;64346;50.820;16.274;2022-11-15T08:03:40;15.00;;;11.02;;
36441;SDS011;64346;50.820;16.274;2022-11-15T08:06:09;14.77;;;10.52;;
36441;SDS011;64346;50.820;16.274;2022-11-15T08:08:39;18.02;;;11.43;;
36441;SDS011;64346;50.820;16.274;2022-11-15T08:11:06;15.10;;;10.18;;
36441;SDS011;64346;50.820;16.274;2022-11-15T08:13:33;14.52;;;10.57;;
36441;SDS011;64346;50.820;16.274;2022-11-15T08:16:03;13.10;;;10.52;;
36441;SDS011;64346;50.820;16.274;2022-11-15T08:18:31;30.25;;;26.98;;
36441;SDS011;64346;50.820;16.274;2022-11-15T08:20:59;24.60;;;21.38;;
36441;SDS011;64346;50.820;16.274;2022-11-15T08:23:27;15.52;;;12.38;;
36441;SDS011;64346;50.820;16.274;2022-11-15T08:26:04;15.15;;;11.02;;
36441;SDS011;64346;50.820;16.274;2022-11-15T08:28:35;15.82;;;10.07;;
36441;SDS011;64346;50.820;16.274;2022-11-15T08:31:03;15.02;;;11.30;;
36441;SDS011;64346;50.820;16.274;2022-11-15T08:33:31;16.23;;;12.55;;
36441;SDS011;64346;50.820;16.274;2022-11-15T08:36:00;18.35;;;13.93;;
36441;SDS011;64346;50.820;16.274;2022-11-15T08:38:27;16.70;;;12.95;;
36441;SDS011;64346;50.820;16.274;2022-11-15T08:40:59;13.77;;;10.57;;
36441;SDS011;64346;50.820;16.274;2022-11-15T08:43:32;16.23;;;11.38;;
36441;SDS011;64346;50.820;16.274;2022-11-15T08:46:00;15.38;;;11.93;;
36441;SDS011;64346;50.820;16.274;2022-11-15T08:48:30;14.73;;;10.75;;
36441;SDS011;64346;50.820;16.274;2022-11-15T08:50:58;14.77;;;11.10;;
36441;SDS011;64346;50.820;16.274;2022-11-15T08:53:27;15.05;;;11.18;;
36441;SDS011;64346;50.820;16.274;2022-11-15T08:55:57;17.17;;;12.35;;
36441;SDS011;64346;50.820;16.274;2022-11-15T08:58:24;18.77;;;11.88;;
36441;SDS011;64346;50.820;16.274;2022-11-15T09:00:51;14.68;;;11.93;;
36441;SDS011;64346;50.820;16.274;2022-11-15T09:03:19;15.38;;;11.05;;
36441;SDS011;64346;50.820;16.274;2022-11-15T09:05:46;13.27;;;10.98;;
36441;SDS011;64346;50.820;16.274;2022-11-15T09:08:16;15.50;;;10.52;;
36441;SDS011;64346;50.820;16.274;2022-11-15T09:11:07;15.55;;;11.30;;
36441;SDS011;64346;50.820;16.274;2022-11-15T09:13:35;15.15;;;11.73;;
36441;SDS011;64346;50.820;16.274;2022-11-15T09:16:03;15.23;;;11.68;;
36441;SDS011;64346;50.820;16.274;2022-11-15T09:18:31;15.30;;;12.15;;
36441;SDS011;64346;50.820;16.274;2022-11-15T09:20:59;17.23;;;12.68;;
36441;SDS011;64346;50.820;16.274;2022-11-15T09:23:29;15.05;;;11.65;;
36441;SDS011;64346;50.820;16.274;2022-11-15T09:26:00;16.55;;;12.52;;
36441;SDS011;64346;50.820;16.274;2022-11-15T09:28:28;16.42;;;13.60;;
36441;SDS011;64346;50.820;16.274;2022-11-15T09:31:01;16.55;;;13.32;;
36441;SDS011;64346;50.820;16.274;2022-11-15T09:33:31;16.30;;;13.15;;
36441;SDS011;64346;50.820;16.274;2022-11-15T09:36:00;16.92;;;13.00;;
36441;SDS011;64346;50.820;16.274;2022-11-15T09:38:32;16.83;;;12.50;;
36441;SDS011;64346;50.820;16.274;2022-11-15T09:49:26;18.67;;;13.07;;
36441;SDS011;64346;50.820;16.274;2022-11-15T09:51:56;15.90;;;12.00;;
36441;SDS011;64346;50.820;16.274;2022-11-15T09:57:28;15.18;;;11.73;;
36441;SDS011;64346;50.820;16.274;2022-11-15T10:03:14;15.52;;;11.85;;
36441;SDS011;64346;50.820;16.274;2022-11-15T10:05:51;19.00;;;13.10;;
36441;SDS011;64346;50.820;16.274;2022-11-15T10:11:00;14.55;;;12.20;;
36441;SDS011;64346;50.820;16.274;2022-11-15T10:13:50;16.30;;;11.70;;
36441;SDS011;64346;50.820;16.274;2022-11-15T10:21:34;14.07;;;11.55;;
36441;SDS011;64346;50.820;16.274;2022-11-15T10:24:28;14.07;;;10.85;;
36441;SDS011;64346;50.820;16.274;2022-11-15T10:27:03;14.40;;;11.30;;
36441;SDS011;64346;50.820;16.274;2022-11-15T10:29:40;14.27;;;11.48;;
36441;SDS011;64346;50.820;16.274;2022-11-15T10:32:14;15.95;;;12.02;;
36441;SDS011;64346;50.820;16.274;2022-11-15T10:34:46;14.70;;;11.45;;
36441;SDS011;64346;50.820;16.274;2022-11-15T10:37:37;16.73;;;12.70;;
36441;SDS011;64346;50.820;16.274;2022-11-15T10:40:15;14.93;;;11.15;;
36441;SDS011;64346;50.820;16.274;2022-11-15T10:42:47;14.68;;;10.57;;
36441;SDS011;64346;50.820;16.274;2022-11-15T10:45:31;14.70;;;11.10;;
36441;SDS011;64346;50.820;16.274;2022-11-15T10:48:18;15.43;;;10.90;;
36441;SDS011;64346;50.820;16.274;2022-11-15T10:50:48;16.60;;;10.43;;
36441;SDS011;64346;50.820;16.274;2022-11-15T10:53:21;17.13;;;11.48;;
36441;SDS011;64346;50.820;16.274;2022-11-15T10:55:49;15.82;;;11.10;;
36441;SDS011;64346;50.820;16.274;2022-11-15T10:58:34;18.92;;;12.05;;
36441;SDS011;64346;50.820;16.274;2022-11-15T11:01:13;19.50;;;12.00;;
36441;SDS011;64346;50.820;16.274;2022-11-15T11:03:43;17.13;;;12.35;;
36441;SDS011;64346;50.820;16.274;2022-11-15T11:06:20;19.38;;;12.70;;
36441;SDS011;64346;50.820;16.274;2022-11-15T11:11:39;23.05;;;13.10;;
36441;SDS011;64346;50.820;16.274;2022-11-15T11:14:12;26.50;;;13.13;;
36441;SDS011;64346;50.820;16.274;2022-11-15T11:16:49;19.42;;;13.15;;
36441;SDS011;64346;50.820;16.274;2022-11-15T11:33:44;30.58;;;16.65;;
36441;SDS011;64346;50.820;16.274;2022-11-15T11:44:24;32.38;;;19.42;;
36441;SDS011;64346;50.820;16.274;2022-11-15T11:47:11;30.33;;;19.50;;
36441;SDS011;64346;50.820;16.274;2022-11-15T11:52:10;29.63;;;18.73;;
36441;SDS011;64346;50.820;16.274;2022-11-15T12:00:23;32.47;;;20.83;;
36441;SDS011;64346;50.820;16.274;2022-11-15T12:08:24;29.80;;;20.05;;
36441;SDS011;64346;50.820;16.274;2022-11-15T12:11:15;30.67;;;20.35;;
36441;SDS011;64346;50.820;16.274;2022-11-15T12:16:17;31.20;;;19.48;;
36441;SDS011;64346;50.820;16.274;2022-11-15T12:18:53;32.00;;;20.08;;
36441;SDS011;64346;50.820;16.274;2022-11-15T12:21:41;29.83;;;20.65;;
36441;SDS011;64346;50.820;16.274;2022-11-15T12:24:18;31.05;;;20.30;;
36441;SDS011;64346;50.820;16.274;2022-11-15T12:26:55;30.13;;;19.58;;
36441;SDS011;64346;50.820;16.274;2022-11-15T12:29:47;29.77;;;20.10;;
36441;SDS011;64346;50.820;16.274;2022-11-15T12:32:30;30.65;;;19.42;;
36441;SDS011;64346;50.820;16.274;2022-11-15T12:35:04;30.50;;;19.35;;
36441;SDS011;64346;50.820;16.274;2022-11-15T12:37:51;28.70;;;19.08;;
36441;SDS011;64346;50.820;16.274;2022-11-15T12:40:26;34.88;;;21.55;;
36441;SDS011;64346;50.820;16.274;2022-11-15T12:45:38;31.98;;;19.27;;
36441;SDS011;64346;50.820;16.274;2022-11-15T13:12:01;33.80;;;20.45;;
36441;SDS011;64346;50.820;16.274;2022-11-15T13:14:42;33.47;;;21.35;;
36441;SDS011;64346;50.820;16.274;2022-11-15T13:22:38;34.78;;;21.25;;
36441;SDS011;64346;50.820;16.274;2022-11-15T13:25:14;34.63;;;21.42;;
36441;SDS011;64346;50.820;16.274;2022-11-15T13:27:46;37.10;;;22.73;;
36441;SDS011;64346;50.820;16.274;2022-11-15T13:30:21;36.47;;;22.52;;
36441;SDS011;64346;50.820;16.274;2022-11-15T13:32:51;38.15;;;23.52;;
36441;SDS011;64346;50.820;16.274;2022-11-15T13:35:23;34.88;;;22.45;;
36441;SDS011;64346;50.820;16.274;2022-11-15T13:37:57;38.47;;;23.10;;
36441;SDS011;64346;50.820;16.274;2022-11-15T13:40:36;37.17;;;23.40;;
36441;SDS011;64346;50.820;16.274;2022-11-15T13:48:33;34.22;;;21.30;;
36441;SDS011;64346;50.820;16.274;2022-11-15T13:51:04;37.08;;;22.83;;
36441;SDS011;64346;50.820;16.274;2022-11-15T13:53:41;37.67;;;22.50;;
36441;SDS011;64346;50.820;16.274;2022-11-15T13:56:11;38.72;;;22.15;;
36441;SDS011;64346;50.820;16.274;2022-11-15T13:58:40;36.47;;;22.17;;
36441;SDS011;64346;50.820;16.274;2022-11-15T14:01:13;43.85;;;24.38;;
36441;SDS011;64346;50.820;16.274;2022-11-15T14:03:52;39.38;;;23.75;;
36441;SDS011;64346;50.820;16.274;2022-11-15T14:06:28;40.25;;;23.35;;
36441;SDS011;64346;50.820;16.274;2022-11-15T14:11:27;39.65;;;23.23;;
36441;SDS011;64346;50.820;16.274;2022-11-15T14:16:39;34.70;;;21.77;;
36441;SDS011;64346;50.820;16.274;2022-11-15T14:19:12;38.78;;;22.70;;
36441;SDS011;64346;50.820;16.274;2022-11-15T14:25:03;39.22;;;23.88;;
36441;SDS011;64346;50.820;16.274;2022-11-15T14:27:30;39.95;;;24.23;;
36441;SDS011;64346;50.820;16.274;2022-11-15T14:29:59;40.83;;;25.75;;
36441;SDS011;64346;50.820;16.274;2022-11-15T14:32:37;44.97;;;25.45;;
36441;SDS011;64346;50.820;16.274;2022-11-15T14:35:18;44.38;;;27.40;;
36441;SDS011;64346;50.820;16.274;2022-11-15T14:38:02;41.55;;;24.35;;
36441;SDS011;64346;50.820;16.274;2022-11-15T14:40:29;48.22;;;27.90;;
36441;SDS011;64346;50.820;16.274;2022-11-15T14:42:56;49.40;;;27.92;;
36441;SDS011;64346;50.820;16.274;2022-11-15T14:45:26;46.03;;;27.60;;
36441;SDS011;64346;50.820;16.274;2022-11-15T14:47:53;48.13;;;29.58;;
36441;SDS011;64346;50.820;16.274;2022-11-15T14:50:21;43.70;;;27.58;;
36441;SDS011;64346;50.820;16.274;2022-11-15T14:52:48;50.05;;;28.40;;
36441;SDS011;64346;50.820;16.274;2022-11-15T14:55:27;46.70;;;28.80;;
36441;SDS011;64346;50.820;16.274;2022-11-15T14:57:58;49.10;;;29.10;;
36441;SDS011;64346;50.820;16.274;2022-11-15T15:00:28;48.30;;;27.58;;
36441;SDS011;64346;50.820;16.274;2022-11-15T15:03:03;46.97;;;28.63;;
36441;SDS011;64346;50.820;16.274;2022-11-15T15:05:38;51.63;;;29.10;;
36441;SDS011;64346;50.820;16.274;2022-11-15T15:08:09;50.47;;;28.70;;
36441;SDS011;64346;50.820;16.274;2022-11-15T15:10:44;51.15;;;27.65;;
36441;SDS011;64346;50.820;16.274;2022-11-15T15:15:48;45.42;;;27.45;;
36441;SDS011;64346;50.820;16.274;2022-11-15T15:18:16;55.63;;;32.80;;
36441;SDS011;64346;50.820;16.274;2022-11-15T15:20:50;53.80;;;29.23;;
36441;SDS011;64346;50.820;16.274;2022-11-15T15:23:24;51.50;;;29.50;;
36441;SDS011;64346;50.820;16.274;2022-11-15T15:25:51;47.50;;;27.00;;
36441;SDS011;64346;50.820;16.274;2022-11-15T15:28:18;49.70;;;28.67;;
36441;SDS011;64346;50.820;16.274;2022-11-15T15:30:46;48.17;;;28.30;;
36441;SDS011;64346;50.820;16.274;2022-11-15T15:33:13;44.28;;;27.38;;
36441;SDS011;64346;50.820;16.274;2022-11-15T15:35:45;49.25;;;28.10;;
36441;SDS011;64346;50.820;16.274;2022-11-15T15:38:15;53.67;;;29.65;;
36441;SDS011;64346;50.820;16.274;2022-11-15T15:40:42;52.65;;;29.83;;
36441;SDS011;64346;50.820;16.274;2022-11-15T15:43:11;55.95;;;31.88;;
36441;SDS011;64346;50.820;16.274;2022-11-15T15:45:39;55.17;;;30.23;;
36441;SDS011;64346;50.820;16.274;2022-11-15T15:48:11;49.92;;;28.70;;
36441;SDS011;64346;50.820;16.274;2022-11-15T15:50:40;50.05;;;28.27;;
36441;SDS011;64346;50.820;16.274;2022-11-15T15:53:07;48.47;;;26.05;;
36441;SDS011;64346;50.820;16.274;2022-11-15T15:55:35;50.50;;;28.83;;
36441;SDS011;64346;50.820;16.274;2022-11-15T15:58:03;48.75;;;27.48;;
36441;SDS011;64346;50.820;16.274;2022-11-15T16:00:35;49.90;;;28.30;;
36441;SDS011;64346;50.820;16.274;2022-11-15T16:03:05;48.33;;;28.50;;
36441;SDS011;64346;50.820;16.274;2022-11-15T16:05:33;52.42;;;29.17;;
36441;SDS011;64346;50.820;16.274;2022-11-15T16:08:02;52.55;;;29.65;;
36441;SDS011;64346;50.820;16.274;2022-11-15T16:10:31;57.55;;;32.20;;
36441;SDS011;64346;50.820;16.274;2022-11-15T16:12:59;63.90;;;34.42;;
36441;SDS011;64346;50.820;16.274;2022-11-15T16:15:30;68.03;;;40.47;;
36441;SDS011;64346;50.820;16.274;2022-11-15T16:17:58;68.13;;;39.75;;
36441;SDS011;64346;50.820;16.274;2022-11-15T16:23:04;80.95;;;44.72;;
36441;SDS011;64346;50.820;16.274;2022-11-15T16:25:47;94.88;;;47.00;;
36441;SDS011;64346;50.820;16.274;2022-11-15T16:30:58;74.47;;;40.05;;
36441;SDS011;64346;50.820;16.274;2022-11-15T16:33:27;74.43;;;39.78;;
36441;SDS011;64346;50.820;16.274;2022-11-15T16:35:55;68.63;;;38.22;;
36441;SDS011;64346;50.820;16.274;2022-11-15T16:38:23;73.15;;;38.30;;
36441;SDS011;64346;50.820;16.274;2022-11-15T16:40:50;70.63;;;39.35;;
36441;SDS011;64346;50.820;16.274;2022-11-15T16:43:17;71.88;;;41.40;;
36441;SDS011;64346;50.820;16.274;2022-11-15T16:45:45;72.85;;;41.72;;
36441;SDS011;64346;50.820;16.274;2022-11-15T16:48:22;76.35;;;41.92;;
36441;SDS011;64346;50.820;16.274;2022-11-15T16:50:54;77.97;;;43.30;;
36441;SDS011;64346;50.820;16.274;2022-11-15T16:53:22;80.97;;;45.28;;
36441;SDS011;64346;50.820;16.274;2022-11-15T16:55:50;78.25;;;42.92;;
36441;SDS011;64346;50.820;16.274;2022-11-15T16:58:18;73.63;;;40.85;;
36441;SDS011;64346;50.820;16.274;2022-11-15T17:00:48;79.15;;;44.20;;